createdAt,value
2018-04-23T00:00:10.582Z,16.40
2018-04-23T00:01:05.457Z,16.40
2018-04-23T00:02:05.924Z,16.40
2018-04-23T00:03:05.101Z,16.40
2018-04-23T00:04:13.348Z,16.40
2018-04-23T00:05:06.211Z,16.40
2018-04-23T00:06:05.610Z,16.40
2018-04-23T00:07:05.589Z,16.40
2018-04-23T00:08:05.299Z,16.40
2018-04-23T00:09:11.340Z,16.30
2018-04-23T00:10:05.984Z,16.30
2018-04-23T00:11:05.892Z,16.30
2018-04-23T00:12:07.878Z,16.30
2018-04-23T00:13:05.417Z,16.30
2018-04-23T00:14:09.982Z,16.30
2018-04-23T00:15:10.558Z,16.30
2018-04-23T00:16:10.385Z,16.30
2018-04-23T00:17:10.974Z,16.30
2018-04-23T00:18:05.856Z,16.30
2018-04-23T00:19:05.183Z,16.30
2018-04-23T00:20:08.787Z,16.30
2018-04-23T00:21:05.591Z,16.20
2018-04-23T00:22:10.670Z,16.20
2018-04-23T00:23:06.024Z,16.20
2018-04-23T00:24:08.477Z,16.20
2018-04-23T00:25:06.156Z,16.20
2018-04-23T00:26:05.685Z,16.20
2018-04-23T00:27:05.304Z,16.10
2018-04-23T00:28:05.450Z,16.10
2018-04-23T00:29:06.053Z,16.10
2018-04-23T00:30:15.944Z,16.10
2018-04-23T00:31:08.857Z,16.10
2018-04-23T00:32:05.250Z,16.10
2018-04-23T00:33:05.153Z,16.10
2018-04-23T00:34:06.241Z,16.10
2018-04-23T00:35:10.659Z,16.10
2018-04-23T00:36:10.635Z,16.00
2018-04-23T00:37:05.712Z,16.00
2018-04-23T00:38:09.584Z,16.00
2018-04-23T00:39:05.295Z,16.00
2018-04-23T00:40:05.405Z,16.00
2018-04-23T00:41:05.252Z,16.00
2018-04-23T00:42:07.929Z,16.00
2018-04-23T00:43:08.447Z,16.00
2018-04-23T00:44:06.072Z,16.00
2018-04-23T00:45:11.949Z,16.00
2018-04-23T00:46:05.883Z,16.00
2018-04-23T00:47:05.394Z,16.00
2018-04-23T00:48:11.251Z,15.90
2018-04-23T00:49:05.407Z,15.90
2018-04-23T00:50:10.705Z,15.90
2018-04-23T00:51:05.575Z,15.90
2018-04-23T00:52:05.100Z,15.90
2018-04-23T00:53:11.312Z,15.90
2018-04-23T00:54:05.479Z,15.80
2018-04-23T00:55:05.228Z,15.80
2018-04-23T00:56:11.771Z,15.80
2018-04-23T00:57:05.601Z,15.80
2018-04-23T00:58:06.092Z,15.80
2018-04-23T00:59:10.395Z,15.70
2018-04-23T01:00:06.279Z,15.70
2018-04-23T01:01:09.715Z,15.60
2018-04-23T01:02:05.797Z,15.60
2018-04-23T01:03:07.006Z,15.60
2018-04-23T01:04:05.662Z,15.60
2018-04-23T01:05:05.950Z,15.60
2018-04-23T01:06:10.661Z,15.60
2018-04-23T01:07:05.376Z,15.60
2018-04-23T01:08:09.451Z,15.50
2018-04-23T01:09:06.495Z,15.60
2018-04-23T01:10:06.127Z,15.50
2018-04-23T01:11:09.352Z,15.50
2018-04-23T01:12:05.987Z,15.50
2018-04-23T01:13:05.355Z,15.50
2018-04-23T01:14:06.035Z,15.50
2018-04-23T01:15:09.061Z,15.40
2018-04-23T01:16:05.503Z,15.40
2018-04-23T01:17:06.153Z,15.40
2018-04-23T01:18:06.214Z,15.40
2018-04-23T01:19:10.971Z,15.40
2018-04-23T01:20:08.327Z,15.40
2018-04-23T01:21:08.402Z,15.30
2018-04-23T01:22:05.865Z,15.30
2018-04-23T01:23:05.140Z,15.30
2018-04-23T01:24:05.707Z,15.30
2018-04-23T01:25:05.320Z,15.20
2018-04-23T01:26:06.065Z,15.20
2018-04-23T01:27:05.846Z,15.20
2018-04-23T01:28:05.643Z,15.20
2018-04-23T01:29:08.329Z,15.20
2018-04-23T01:30:06.025Z,15.20
2018-04-23T01:31:05.935Z,15.20
2018-04-23T01:32:05.843Z,15.20
2018-04-23T01:33:05.143Z,15.20
2018-04-23T01:34:10.660Z,15.10
2018-04-23T01:35:10.353Z,15.00
2018-04-23T01:36:06.030Z,15.10
2018-04-23T01:37:05.862Z,15.00
2018-04-23T01:38:05.694Z,15.00
2018-04-23T01:39:05.615Z,15.00
2018-04-23T01:40:05.996Z,15.00
2018-04-23T01:41:05.856Z,15.00
2018-04-23T01:42:05.691Z,15.00
2018-04-23T01:43:05.701Z,15.00
2018-04-23T01:44:10.661Z,14.90
2018-04-23T01:45:06.068Z,14.90
2018-04-23T01:46:05.996Z,14.90
2018-04-23T01:47:10.360Z,14.90
2018-04-23T01:48:08.675Z,14.90
2018-04-23T01:49:08.121Z,14.90
2018-04-23T01:50:08.347Z,14.90
2018-04-23T01:51:06.020Z,14.90
2018-04-23T01:52:06.059Z,14.80
2018-04-23T01:53:05.443Z,14.80
2018-04-23T01:54:10.375Z,14.80
2018-04-23T01:55:06.185Z,14.80
2018-04-23T01:56:10.750Z,14.80
2018-04-23T01:57:18.133Z,14.80
2018-04-23T01:58:06.113Z,14.80
2018-04-23T01:59:08.186Z,14.80
2018-04-23T02:00:06.030Z,14.80
2018-04-23T02:01:11.960Z,14.80
2018-04-23T02:02:09.542Z,14.80
2018-04-23T02:03:08.599Z,14.70
2018-04-23T02:04:07.734Z,14.70
2018-04-23T02:05:05.225Z,14.70
2018-04-23T02:06:11.365Z,14.70
2018-04-23T02:07:06.098Z,1.90
2018-04-23T02:08:05.764Z,14.70
2018-04-23T02:09:05.732Z,14.60
2018-04-23T02:10:10.703Z,14.70
2018-04-23T02:11:08.942Z,14.70
2018-04-23T02:12:11.213Z,14.60
2018-04-23T02:13:12.274Z,14.60
2018-04-23T02:14:05.907Z,14.60
2018-04-23T02:15:06.600Z,14.60
2018-04-23T02:16:05.355Z,14.60
2018-04-23T02:17:06.127Z,14.60
2018-04-23T02:18:06.252Z,14.50
2018-04-23T02:19:05.138Z,14.60
2018-04-23T02:20:08.176Z,14.50
2018-04-23T02:21:13.363Z,14.50
2018-04-23T02:22:06.001Z,14.50
2018-04-23T02:23:06.170Z,14.50
2018-04-23T02:24:05.181Z,14.50
2018-04-23T02:25:05.577Z,14.50
2018-04-23T02:26:05.441Z,14.50
2018-04-23T02:27:11.638Z,14.50
2018-04-23T02:28:08.825Z,14.50
2018-04-23T02:29:10.911Z,14.50
2018-04-23T02:30:10.727Z,14.50
2018-04-23T02:31:11.329Z,14.50
2018-04-23T02:32:09.013Z,14.50
2018-04-23T02:33:10.402Z,14.50
2018-04-23T02:34:08.173Z,14.40
2018-04-23T02:35:13.865Z,14.40
2018-04-23T02:36:05.447Z,14.40
2018-04-23T02:37:05.835Z,14.40
2018-04-23T02:38:05.338Z,14.40
2018-04-23T02:39:10.478Z,14.40
2018-04-23T02:40:05.713Z,14.40
2018-04-23T02:41:05.687Z,14.40
2018-04-23T02:42:05.762Z,14.40
2018-04-23T02:43:05.988Z,14.40
2018-04-23T02:44:05.820Z,14.40
2018-04-23T02:45:06.113Z,14.40
2018-04-23T02:46:06.677Z,14.40
2018-04-23T02:47:11.442Z,14.30
2018-04-23T02:48:05.302Z,14.30
2018-04-23T02:49:10.497Z,14.20
2018-04-23T02:50:05.740Z,14.20
2018-04-23T02:51:13.276Z,14.20
2018-04-23T02:52:06.312Z,14.30
2018-04-23T02:53:10.618Z,14.30
2018-04-23T02:54:05.580Z,14.20
2018-04-23T02:55:10.616Z,14.20
2018-04-23T02:56:06.326Z,14.20
2018-04-23T02:57:05.767Z,14.20
2018-04-23T02:58:05.654Z,14.20
2018-04-23T02:59:05.912Z,14.20
2018-04-23T03:00:05.424Z,14.20
2018-04-23T03:01:05.584Z,14.20
2018-04-23T03:02:05.570Z,14.20
2018-04-23T03:03:05.813Z,14.20
2018-04-23T03:04:07.822Z,14.20
2018-04-23T03:05:14.060Z,14.20
2018-04-23T03:06:08.140Z,14.30
2018-04-23T03:07:05.672Z,14.20
2018-04-23T03:08:09.073Z,14.20
2018-04-23T03:09:13.398Z,14.20
2018-04-23T03:10:06.023Z,14.20
2018-04-23T03:11:09.820Z,14.30
2018-04-23T03:12:12.075Z,14.30
2018-04-23T03:13:06.145Z,14.20
2018-04-23T03:14:05.211Z,14.20
2018-04-23T03:15:06.415Z,14.20
2018-04-23T03:16:07.834Z,14.10
2018-04-23T03:17:05.789Z,14.20
2018-04-23T03:18:11.363Z,14.10
2018-04-23T03:19:05.453Z,14.10
2018-04-23T03:20:07.932Z,14.20
2018-04-23T03:21:05.438Z,14.10
2018-04-23T03:22:06.152Z,14.10
2018-04-23T03:23:05.987Z,14.10
2018-04-23T03:24:05.782Z,14.10
2018-04-23T03:25:05.928Z,14.10
2018-04-23T03:26:09.525Z,14.10
2018-04-23T03:27:05.453Z,14.10
2018-04-23T03:28:05.706Z,14.10
2018-04-23T03:29:06.062Z,14.00
2018-04-23T03:30:05.923Z,14.00
2018-04-23T03:31:10.773Z,14.10
2018-04-23T03:32:06.069Z,14.00
2018-04-23T03:33:05.652Z,14.00
2018-04-23T03:34:08.684Z,14.00
2018-04-23T03:35:05.279Z,14.00
2018-04-23T03:36:05.685Z,14.00
2018-04-23T03:37:06.122Z,14.00
2018-04-23T03:38:08.555Z,14.00
2018-04-23T03:39:11.454Z,13.90
2018-04-23T03:40:06.133Z,13.90
2018-04-23T03:41:08.587Z,13.90
2018-04-23T03:42:08.249Z,13.90
2018-04-23T03:43:05.798Z,13.90
2018-04-23T03:44:08.713Z,13.90
2018-04-23T03:45:05.287Z,13.90
2018-04-23T03:46:06.150Z,13.90
2018-04-23T03:47:10.714Z,13.90
2018-04-23T03:48:08.053Z,13.90
2018-04-23T03:49:05.830Z,13.90
2018-04-23T03:50:10.843Z,13.90
2018-04-23T03:51:06.147Z,13.90
2018-04-23T03:52:11.524Z,13.90
2018-04-23T03:53:05.477Z,13.90
2018-04-23T03:54:10.486Z,13.90
2018-04-23T03:55:06.560Z,13.90
2018-04-23T03:56:05.966Z,13.90
2018-04-23T03:57:05.718Z,13.90
2018-04-23T03:58:07.900Z,13.90
2018-04-23T03:59:08.895Z,13.90
2018-04-23T04:00:11.289Z,13.90
2018-04-23T04:01:06.298Z,13.90
2018-04-23T04:02:05.487Z,13.90
2018-04-23T04:03:15.194Z,13.90
2018-04-23T04:04:05.832Z,13.90
2018-04-23T04:05:08.786Z,13.90
2018-04-23T04:06:05.477Z,14.00
2018-04-23T04:07:12.387Z,14.00
2018-04-23T04:08:05.384Z,14.00
2018-04-23T04:09:11.365Z,14.00
2018-04-23T04:10:05.706Z,14.00
2018-04-23T04:11:05.315Z,14.00
2018-04-23T04:12:05.541Z,14.00
2018-04-23T04:13:10.483Z,14.00
2018-04-23T04:14:06.028Z,14.00
2018-04-23T04:15:06.356Z,14.00
2018-04-23T04:16:06.074Z,14.00
2018-04-23T04:17:06.167Z,14.10
2018-04-23T04:18:05.276Z,14.10
2018-04-23T04:19:05.513Z,14.10
2018-04-23T04:20:05.457Z,14.10
2018-04-23T04:21:05.611Z,14.10
2018-04-23T04:22:11.006Z,14.10
2018-04-23T04:23:05.826Z,14.10
2018-04-23T04:24:11.379Z,14.20
2018-04-23T04:25:11.758Z,14.20
2018-04-23T04:26:05.508Z,14.20
2018-04-23T04:27:08.326Z,14.20
2018-04-23T04:28:06.023Z,14.20
2018-04-23T04:29:05.426Z,14.20
2018-04-23T04:30:05.855Z,14.20
2018-04-23T04:31:08.575Z,14.20
2018-04-23T04:32:08.289Z,14.30
2018-04-23T04:33:06.402Z,14.30
2018-04-23T04:34:08.317Z,14.30
2018-04-23T04:35:08.549Z,14.30
2018-04-23T04:36:13.193Z,14.30
2018-04-23T04:37:06.071Z,14.30
2018-04-23T04:38:09.075Z,14.30
2018-04-23T04:39:05.689Z,14.30
2018-04-23T04:40:05.516Z,14.40
2018-04-23T04:41:07.842Z,14.40
2018-04-23T04:42:10.903Z,14.30
2018-04-23T04:43:05.653Z,14.40
2018-04-23T04:44:08.663Z,14.40
2018-04-23T04:45:05.301Z,14.30
2018-04-23T04:46:06.062Z,14.40
2018-04-23T04:47:05.689Z,14.40
2018-04-23T04:48:05.618Z,14.40
2018-04-23T04:49:05.759Z,14.40
2018-04-23T04:50:08.416Z,14.50
2018-04-23T04:51:10.226Z,14.50
2018-04-23T04:52:05.492Z,14.50
2018-04-23T04:53:05.611Z,14.50
2018-04-23T04:54:05.814Z,14.50
2018-04-23T04:55:05.594Z,14.50
2018-04-23T04:56:05.735Z,14.50
2018-04-23T04:57:05.772Z,14.60
2018-04-23T04:58:05.845Z,14.60
2018-04-23T04:59:06.886Z,14.60
2018-04-23T05:00:08.472Z,14.60
2018-04-23T05:01:11.665Z,14.60
2018-04-23T05:02:05.440Z,14.70
2018-04-23T05:03:05.302Z,14.70
2018-04-23T05:04:10.421Z,14.70
2018-04-23T05:05:13.576Z,14.70
2018-04-23T05:06:16.243Z,14.70
2018-04-23T05:07:05.896Z,14.80
2018-04-23T05:08:10.841Z,14.80
2018-04-23T05:09:05.591Z,14.80
2018-04-23T05:10:08.730Z,14.80
2018-04-23T05:11:05.275Z,14.80
2018-04-23T05:12:10.583Z,14.90
2018-04-23T05:13:05.725Z,14.50
2018-04-23T05:14:05.586Z,15.00
2018-04-23T05:15:05.944Z,15.00
2018-04-23T05:16:06.111Z,15.00
2018-04-23T05:17:05.948Z,15.10
2018-04-23T05:18:05.805Z,15.20
2018-04-23T05:19:08.343Z,15.30
2018-04-23T05:20:05.994Z,15.30
2018-04-23T05:21:05.651Z,15.30
2018-04-23T05:22:05.841Z,15.30
2018-04-23T05:23:05.711Z,15.40
2018-04-23T05:24:05.863Z,15.40
2018-04-23T05:25:05.543Z,15.40
2018-04-23T05:26:11.359Z,15.50
2018-04-23T05:27:08.956Z,15.60
2018-04-23T05:28:08.053Z,15.70
2018-04-23T05:29:05.582Z,15.70
2018-04-23T05:30:07.864Z,15.70
2018-04-23T05:31:08.432Z,15.70
2018-04-23T05:32:06.156Z,15.70
2018-04-23T05:33:11.853Z,15.80
2018-04-23T05:34:15.992Z,15.80
2018-04-23T05:35:08.064Z,15.80
2018-04-23T05:36:08.412Z,15.80
2018-04-23T05:37:12.181Z,15.90
2018-04-23T05:38:10.556Z,15.90
2018-04-23T05:39:08.104Z,15.90
2018-04-23T05:40:08.073Z,15.90
2018-04-23T05:41:10.875Z,15.90
2018-04-23T05:42:09.137Z,16.00
2018-04-23T05:43:05.736Z,16.00
2018-04-23T05:44:08.724Z,16.10
2018-04-23T05:45:08.462Z,16.10
2018-04-23T05:46:06.151Z,16.10
2018-04-23T05:47:08.561Z,16.30
2018-04-23T05:48:06.213Z,16.30
2018-04-23T05:49:05.903Z,16.40
2018-04-23T05:50:05.969Z,16.50
2018-04-23T05:51:10.350Z,16.60
2018-04-23T05:52:05.324Z,16.60
2018-04-23T05:53:05.424Z,16.60
2018-04-23T05:54:08.131Z,16.80
2018-04-23T05:55:08.421Z,16.80
2018-04-23T05:56:11.215Z,16.80
2018-04-23T05:57:05.795Z,16.80
2018-04-23T05:58:05.808Z,16.90
2018-04-23T05:59:09.271Z,16.90
2018-04-23T06:00:06.232Z,16.90
2018-04-23T06:01:08.625Z,17.10
2018-04-23T06:02:05.461Z,17.00
2018-04-23T06:03:05.667Z,17.10
2018-04-23T06:04:05.816Z,17.20
2018-04-23T06:05:08.155Z,17.30
2018-04-23T06:06:05.841Z,17.30
2018-04-23T06:07:07.781Z,17.40
2018-04-23T06:08:05.517Z,17.50
2018-04-23T06:09:08.520Z,17.60
2018-04-23T06:10:05.178Z,17.60
2018-04-23T06:11:05.254Z,17.70
2018-04-23T06:12:06.674Z,17.90
2018-04-23T06:13:05.472Z,18.00
2018-04-23T06:14:05.891Z,18.10
2018-04-23T06:15:05.455Z,18.20
2018-04-23T06:16:05.386Z,18.20
2018-04-23T06:17:10.673Z,18.30
2018-04-23T06:18:05.578Z,18.30
2018-04-23T06:19:05.451Z,18.40
2018-04-23T06:20:05.201Z,18.40
2018-04-23T06:21:11.222Z,18.40
2018-04-23T06:22:05.900Z,18.40
2018-04-23T06:23:06.516Z,18.50
2018-04-23T06:24:05.709Z,18.40
2018-04-23T06:25:10.923Z,18.40
2018-04-23T06:26:08.974Z,18.50
2018-04-23T06:27:05.295Z,18.40
2018-04-23T06:28:05.276Z,18.40
2018-04-23T06:29:05.625Z,18.40
2018-04-23T06:30:08.255Z,18.40
2018-04-23T06:31:06.024Z,18.40
2018-04-23T06:32:08.448Z,18.40
2018-04-23T06:33:06.144Z,18.40
2018-04-23T06:34:11.247Z,18.30
2018-04-23T06:35:13.289Z,18.30
2018-04-23T06:36:05.923Z,18.30
2018-04-23T06:37:06.214Z,18.30
2018-04-23T06:38:08.793Z,18.30
2018-04-23T06:39:05.440Z,18.20
2018-04-23T06:40:05.497Z,18.30
2018-04-23T06:41:05.429Z,18.30
2018-04-23T06:42:05.306Z,18.30
2018-04-23T06:43:10.686Z,18.30
2018-04-23T06:44:05.643Z,18.30
2018-04-23T06:45:11.128Z,18.30
2018-04-23T06:46:10.752Z,18.30
2018-04-23T06:47:08.889Z,18.30
2018-04-23T06:48:05.582Z,18.30
2018-04-23T06:49:11.448Z,18.40
2018-04-23T06:50:06.633Z,18.40
2018-04-23T06:51:05.280Z,18.40
2018-04-23T06:52:06.218Z,18.40
2018-04-23T06:53:05.301Z,18.40
2018-04-23T06:54:09.263Z,18.50
2018-04-23T06:55:11.280Z,18.50
2018-04-23T06:56:11.618Z,18.60
2018-04-23T06:57:05.643Z,18.60
2018-04-23T06:58:05.277Z,18.70
2018-04-23T06:59:10.947Z,18.80
2018-04-23T07:00:05.632Z,18.90
2018-04-23T07:01:08.664Z,19.10
2018-04-23T07:02:05.749Z,19.10
2018-04-23T07:03:05.620Z,19.20
2018-04-23T07:04:05.961Z,19.30
2018-04-23T07:05:06.256Z,19.40
2018-04-23T07:06:09.012Z,19.50
2018-04-23T07:07:10.325Z,19.50
2018-04-23T07:08:05.783Z,19.50
2018-04-23T07:09:05.834Z,19.50
2018-04-23T07:10:05.782Z,19.50
2018-04-23T07:11:05.686Z,19.50
2018-04-23T07:12:07.367Z,19.50
2018-04-23T07:13:08.628Z,19.50
2018-04-23T07:14:05.480Z,19.50
2018-04-23T07:15:05.430Z,19.50
2018-04-23T07:16:05.952Z,19.50
2018-04-23T07:17:08.543Z,19.50
2018-04-23T07:18:05.244Z,19.50
2018-04-23T07:19:06.107Z,19.40
2018-04-23T07:20:06.074Z,19.50
2018-04-23T07:21:11.384Z,19.50
2018-04-23T07:22:07.988Z,19.50
2018-04-23T07:23:05.593Z,19.50
2018-04-23T07:24:06.040Z,19.50
2018-04-23T07:25:05.876Z,19.60
2018-04-23T07:26:05.816Z,19.60
2018-04-23T07:27:07.923Z,19.70
2018-04-23T07:28:05.503Z,19.70
2018-04-23T07:29:05.456Z,19.70
2018-04-23T07:30:06.198Z,19.80
2018-04-23T07:31:08.480Z,20.00
2018-04-23T07:32:11.490Z,20.10
2018-04-23T07:33:06.353Z,20.00
2018-04-23T07:34:05.359Z,20.20
2018-04-23T07:35:05.801Z,20.30
2018-04-23T07:36:05.504Z,20.30
2018-04-23T07:37:05.931Z,20.40
2018-04-23T07:38:05.844Z,20.50
2018-04-23T07:39:05.347Z,20.60
2018-04-23T07:40:06.295Z,20.70
2018-04-23T07:41:08.651Z,21.00
2018-04-23T07:42:13.165Z,21.10
2018-04-23T07:43:12.618Z,21.20
2018-04-23T07:44:20.708Z,21.20
2018-04-23T07:45:10.750Z,21.30
2018-04-23T07:46:05.972Z,21.40
2018-04-23T07:47:05.539Z,21.40
2018-04-23T07:48:09.232Z,21.50
2018-04-23T07:49:09.137Z,21.50
2018-04-23T07:50:05.787Z,21.50
2018-04-23T07:51:05.529Z,21.50
2018-04-23T07:52:05.328Z,21.50
2018-04-23T07:53:08.050Z,21.60
2018-04-23T07:54:06.115Z,21.50
2018-04-23T07:55:06.164Z,21.50
2018-04-23T07:56:06.592Z,21.60
2018-04-23T07:57:05.524Z,21.60
2018-04-23T07:58:05.433Z,21.70
2018-04-23T07:59:06.184Z,21.70
2018-04-23T08:00:13.612Z,21.80
2018-04-23T08:01:10.957Z,21.80
2018-04-23T08:02:05.642Z,21.80
2018-04-23T08:03:15.434Z,21.80
2018-04-23T08:04:05.938Z,21.80
2018-04-23T08:05:08.098Z,21.80
2018-04-23T08:06:10.697Z,21.70
2018-04-23T08:07:06.098Z,21.70
2018-04-23T08:08:08.274Z,21.70
2018-04-23T08:09:08.704Z,21.60
2018-04-23T08:10:05.357Z,21.70
2018-04-23T08:11:05.795Z,21.70
2018-04-23T08:12:05.486Z,21.60
2018-04-23T08:13:08.988Z,21.50
2018-04-23T08:14:05.681Z,21.50
2018-04-23T08:15:05.706Z,21.50
2018-04-23T08:16:10.721Z,21.50
2018-04-23T08:17:05.616Z,21.40
2018-04-23T08:18:06.033Z,21.40
2018-04-23T08:19:13.691Z,21.40
2018-04-23T08:20:05.183Z,21.40
2018-04-23T08:21:05.455Z,21.30
2018-04-23T08:22:08.055Z,21.40
2018-04-23T08:23:06.591Z,21.40
2018-04-23T08:24:08.128Z,21.50
2018-04-23T08:25:06.133Z,21.50
2018-04-23T08:26:10.409Z,21.60
2018-04-23T08:27:08.515Z,21.60
2018-04-23T08:28:05.305Z,21.70
2018-04-23T08:29:08.047Z,21.70
2018-04-23T08:30:08.598Z,21.80
2018-04-23T08:31:09.502Z,21.80
2018-04-23T08:32:05.381Z,21.80
2018-04-23T08:33:05.340Z,21.90
2018-04-23T08:34:05.246Z,22.00
2018-04-23T08:35:06.216Z,22.00
2018-04-23T08:36:05.590Z,22.10
2018-04-23T08:37:05.952Z,22.10
2018-04-23T08:38:08.731Z,22.20
2018-04-23T08:39:05.419Z,22.20
2018-04-23T08:40:08.673Z,22.30
2018-04-23T08:41:05.249Z,22.20
2018-04-23T08:42:06.339Z,22.30
2018-04-23T08:43:11.428Z,22.30
2018-04-23T08:44:09.408Z,22.30
2018-04-23T08:45:06.209Z,22.30
2018-04-23T08:46:08.490Z,22.20
2018-04-23T08:47:11.425Z,22.20
2018-04-23T08:48:05.648Z,22.20
2018-04-23T08:49:09.132Z,22.20
2018-04-23T08:50:11.062Z,22.20
2018-04-23T08:51:08.571Z,22.20
2018-04-23T08:52:11.377Z,22.10
2018-04-23T08:53:05.519Z,22.10
2018-04-23T08:54:05.451Z,22.10
2018-04-23T08:55:08.196Z,22.00
2018-04-23T08:56:05.871Z,21.90
2018-04-23T08:57:08.833Z,21.90
2018-04-23T08:58:15.673Z,21.80
2018-04-23T08:59:08.636Z,21.80
2018-04-23T09:00:05.278Z,21.80
2018-04-23T09:01:12.518Z,21.70
2018-04-23T09:02:06.127Z,21.60
2018-04-23T09:03:05.970Z,21.60
2018-04-23T09:04:05.222Z,21.50
2018-04-23T09:05:06.074Z,21.40
2018-04-23T09:06:05.265Z,21.40
2018-04-23T09:07:09.231Z,21.30
2018-04-23T09:08:06.443Z,21.30
2018-04-23T09:09:05.996Z,21.20
2018-04-23T09:10:06.102Z,21.10
2018-04-23T09:11:05.981Z,21.10
2018-04-23T09:12:06.109Z,21.00
2018-04-23T09:13:05.584Z,21.00
2018-04-23T09:14:08.491Z,20.90
2018-04-23T09:15:09.008Z,20.90
2018-04-23T09:16:05.699Z,20.90
2018-04-23T09:17:13.698Z,20.90
2018-04-23T09:18:07.863Z,20.90
2018-04-23T09:19:05.576Z,20.80
2018-04-23T09:20:11.569Z,20.90
2018-04-23T09:21:11.580Z,20.80
2018-04-23T09:22:05.845Z,20.80
2018-04-23T09:23:07.736Z,20.70
2018-04-23T09:24:07.987Z,20.80
2018-04-23T09:25:08.047Z,20.80
2018-04-23T09:26:08.185Z,20.70
2018-04-23T09:27:09.125Z,20.70
2018-04-23T09:28:05.737Z,20.70
2018-04-23T09:29:08.540Z,20.60
2018-04-23T09:30:10.395Z,20.60
2018-04-23T09:31:06.014Z,20.60
2018-04-23T09:32:11.124Z,20.50
2018-04-23T09:33:10.835Z,20.50
2018-04-23T09:34:11.453Z,20.50
2018-04-23T09:35:10.476Z,20.50
2018-04-23T09:36:13.576Z,20.50
2018-04-23T09:37:08.879Z,20.50
2018-04-23T09:38:05.660Z,20.50
2018-04-23T09:39:05.795Z,20.50
2018-04-23T09:40:05.880Z,20.50
2018-04-23T09:41:05.730Z,20.50
2018-04-23T09:42:08.076Z,20.50
2018-04-23T09:43:10.860Z,20.50
2018-04-23T09:44:05.740Z,20.50
2018-04-23T09:45:08.360Z,20.60
2018-04-23T09:46:06.267Z,20.50
2018-04-23T09:47:05.712Z,20.60
2018-04-23T09:48:05.154Z,20.60
2018-04-23T09:49:06.062Z,20.60
2018-04-23T09:50:09.072Z,20.60
2018-04-23T09:51:05.880Z,20.60
2018-04-23T09:52:06.686Z,20.60
2018-04-23T09:53:06.443Z,20.60
2018-04-23T09:54:10.479Z,20.60
2018-04-23T09:55:08.067Z,20.60
2018-04-23T09:56:09.120Z,20.60
2018-04-23T09:57:06.289Z,20.60
2018-04-23T09:58:08.402Z,20.60
2018-04-23T09:59:05.414Z,20.60
2018-04-23T10:00:07.984Z,20.70
2018-04-23T10:01:05.875Z,20.60
2018-04-23T10:02:05.718Z,20.70
2018-04-23T10:03:06.032Z,20.70
2018-04-23T10:04:12.083Z,20.70
2018-04-23T10:05:05.928Z,20.70
2018-04-23T10:06:08.620Z,20.80
2018-04-23T10:07:05.482Z,20.80
2018-04-23T10:08:08.056Z,20.90
2018-04-23T10:09:08.518Z,20.90
2018-04-23T10:10:06.097Z,20.90
2018-04-23T10:11:11.219Z,20.90
2018-04-23T10:12:07.920Z,21.00
2018-04-23T10:13:05.560Z,20.90
2018-04-23T10:14:06.472Z,21.00
2018-04-23T10:15:10.827Z,20.90
2018-04-23T10:16:06.515Z,21.00
2018-04-23T10:17:05.422Z,20.90
2018-04-23T10:18:05.399Z,21.00
2018-04-23T10:19:11.373Z,21.00
2018-04-23T10:20:05.959Z,21.00
2018-04-23T10:21:08.487Z,21.00
2018-04-23T10:22:05.763Z,21.00
2018-04-23T10:23:05.926Z,21.00
2018-04-23T10:24:08.524Z,21.00
2018-04-23T10:25:06.155Z,21.00
2018-04-23T10:26:05.286Z,21.00
2018-04-23T10:27:12.093Z,21.00
2018-04-23T10:28:05.865Z,21.10
2018-04-23T10:29:05.258Z,21.10
2018-04-23T10:30:07.091Z,21.10
2018-04-23T10:31:05.844Z,21.10
2018-04-23T10:32:06.017Z,21.20
2018-04-23T10:33:05.696Z,21.20
2018-04-23T10:34:05.676Z,21.20
2018-04-23T10:35:11.961Z,21.40
2018-04-23T10:36:05.938Z,21.40
2018-04-23T10:37:07.964Z,21.50
2018-04-23T10:38:11.851Z,21.60
2018-04-23T10:39:05.929Z,21.60
2018-04-23T10:40:13.322Z,21.70
2018-04-23T10:41:07.487Z,21.70
2018-04-23T10:42:05.330Z,21.80
2018-04-23T10:43:05.984Z,21.90
2018-04-23T10:44:08.080Z,21.90
2018-04-23T10:45:08.238Z,22.00
2018-04-23T10:46:05.969Z,22.00
2018-04-23T10:47:05.868Z,22.00
2018-04-23T10:48:08.515Z,22.10
2018-04-23T10:49:06.245Z,22.00
2018-04-23T10:50:06.248Z,22.10
2018-04-23T10:51:13.255Z,22.00
2018-04-23T10:52:05.818Z,22.10
2018-04-23T10:53:06.250Z,22.00
2018-04-23T10:54:08.477Z,22.00
2018-04-23T10:55:06.217Z,22.00
2018-04-23T10:56:13.821Z,21.90
2018-04-23T10:57:14.204Z,21.90
2018-04-23T10:58:05.724Z,21.90
2018-04-23T10:59:06.018Z,21.90
2018-04-23T11:00:06.189Z,21.80
2018-04-23T11:01:09.375Z,21.80
2018-04-23T11:02:16.239Z,21.70
2018-04-23T11:03:11.161Z,21.70
2018-04-23T11:04:06.193Z,21.70
2018-04-23T11:05:05.714Z,21.60
2018-04-23T11:06:13.644Z,21.50
2018-04-23T11:07:05.307Z,21.50
2018-04-23T11:08:08.465Z,21.40
2018-04-23T11:09:05.968Z,21.50
2018-04-23T11:10:05.836Z,21.50
2018-04-23T11:11:12.139Z,21.40
2018-04-23T11:12:10.246Z,21.40
2018-04-23T11:13:06.242Z,21.40
2018-04-23T11:14:06.089Z,21.30
2018-04-23T11:15:06.257Z,21.30
2018-04-23T11:16:05.559Z,21.30
2018-04-23T11:17:08.029Z,21.20
2018-04-23T11:18:05.733Z,21.20
2018-04-23T11:19:11.397Z,21.20
2018-04-23T11:20:07.919Z,21.20
2018-04-23T11:21:08.044Z,21.10
2018-04-23T11:22:05.660Z,21.10
2018-04-23T11:23:11.185Z,21.10
2018-04-23T11:24:12.153Z,21.10
2018-04-23T11:25:05.794Z,21.10
2018-04-23T11:26:13.691Z,21.20
2018-04-23T11:27:05.211Z,21.20
2018-04-23T11:28:05.860Z,21.20
2018-04-23T11:29:06.435Z,21.20
2018-04-23T11:30:06.179Z,21.20
2018-04-23T11:31:08.417Z,21.30
2018-04-23T11:32:06.321Z,21.30
2018-04-23T11:33:10.889Z,21.30
2018-04-23T11:34:08.538Z,21.40
2018-04-23T11:35:13.820Z,21.40
2018-04-23T11:36:05.563Z,21.40
2018-04-23T11:37:05.382Z,21.40
2018-04-23T11:38:11.190Z,21.40
2018-04-23T11:39:09.428Z,21.40
2018-04-23T11:40:06.106Z,21.40
2018-04-23T11:41:08.360Z,21.40
2018-04-23T11:42:05.974Z,21.40
2018-04-23T11:43:08.167Z,21.40
2018-04-23T11:44:11.289Z,21.40
2018-04-23T11:45:05.596Z,21.40
2018-04-23T11:46:13.374Z,21.40
2018-04-23T11:47:06.005Z,21.40
2018-04-23T11:48:06.158Z,21.40
2018-04-23T11:49:05.401Z,21.40
2018-04-23T11:50:12.473Z,21.40
2018-04-23T11:51:05.426Z,21.40
2018-04-23T11:52:11.559Z,21.40
2018-04-23T11:53:05.633Z,21.50
2018-04-23T11:54:09.159Z,21.40
2018-04-23T11:55:08.730Z,21.50
2018-04-23T11:56:05.700Z,21.50
2018-04-23T11:57:06.137Z,21.50
2018-04-23T11:58:05.517Z,21.50
2018-04-23T11:59:11.565Z,21.50
2018-04-23T12:00:08.330Z,21.50
2018-04-23T12:01:10.966Z,21.60
2018-04-23T12:02:05.919Z,21.50
2018-04-23T12:03:10.171Z,21.50
2018-04-23T12:04:05.963Z,21.50
2018-04-23T12:05:05.564Z,21.50
2018-04-23T12:06:05.618Z,21.50
2018-04-23T12:07:08.384Z,21.50
2018-04-23T12:08:05.862Z,21.50
2018-04-23T12:09:06.053Z,21.60
2018-04-23T12:10:08.396Z,21.60
2018-04-23T12:11:06.235Z,21.60
2018-04-23T12:12:06.162Z,21.60
2018-04-23T12:13:13.853Z,21.70
2018-04-23T12:14:05.717Z,21.70
2018-04-23T12:15:05.431Z,21.70
2018-04-23T12:16:12.455Z,21.80
2018-04-23T12:17:08.129Z,21.80
2018-04-23T12:18:05.750Z,21.80
2018-04-23T12:19:09.430Z,21.90
2018-04-23T12:20:06.091Z,21.80
2018-04-23T12:21:07.161Z,21.90
2018-04-23T12:22:11.610Z,22.00
2018-04-23T12:23:08.207Z,22.10
2018-04-23T12:24:08.264Z,22.20
2018-04-23T12:25:11.231Z,22.20
2018-04-23T12:26:05.425Z,22.20
2018-04-23T12:27:05.643Z,22.30
2018-04-23T12:28:05.925Z,22.30
2018-04-23T12:29:05.562Z,22.40
2018-04-23T12:30:10.840Z,22.50
2018-04-23T12:31:05.534Z,22.50
2018-04-23T12:32:08.859Z,22.60
2018-04-23T12:33:05.648Z,22.50
2018-04-23T12:34:05.725Z,22.60
2018-04-23T12:35:07.818Z,22.70
2018-04-23T12:36:05.581Z,22.80
2018-04-23T12:37:08.359Z,22.90
2018-04-23T12:38:06.004Z,22.80
2018-04-23T12:39:06.090Z,22.80
2018-04-23T12:40:08.613Z,22.90
2018-04-23T12:41:07.731Z,22.90
2018-04-23T12:42:05.263Z,22.90
2018-04-23T12:43:05.983Z,22.90
2018-04-23T12:44:08.485Z,22.90
2018-04-23T12:45:05.988Z,22.90
2018-04-23T12:46:06.432Z,22.90
2018-04-23T12:47:05.486Z,23.00
2018-04-23T12:48:08.001Z,23.00
2018-04-23T12:49:08.382Z,23.00
2018-04-23T12:50:06.527Z,23.00
2018-04-23T12:51:05.454Z,23.10
2018-04-23T12:52:08.364Z,23.10